createdAt,value
2016-04-23T00:00:38.482Z,8.04
2016-04-23T00:01:38.485Z,8
2016-04-23T00:02:38.472Z,8.02
2016-04-23T00:03:38.443Z,8
2016-04-23T00:04:38.430Z,8.03
2016-04-23T00:05:38.418Z,8.11
2016-04-23T00:06:38.405Z,8.04
2016-04-23T00:07:38.376Z,8.03
2016-04-23T00:08:38.363Z,8.02
2016-04-23T00:09:38.365Z,7.97
2016-04-23T00:10:38.338Z,8.03
2016-04-23T00:11:38.324Z,8.07
2016-04-23T00:12:38.499Z,8.03
2016-04-23T00:13:38.298Z,7.99
2016-04-23T00:14:38.285Z,7.97
2016-04-23T00:15:38.257Z,7.94
2016-04-23T00:16:38.244Z,7.97
2016-04-23T00:17:38.262Z,7.96
2016-04-23T00:18:38.203Z,8.04
2016-04-23T00:19:38.206Z,7.94
2016-04-23T00:20:38.192Z,7.97
2016-04-23T00:21:38.164Z,7.9
2016-04-23T00:22:38.151Z,7.94
2016-04-23T00:23:38.138Z,7.99
2016-04-23T00:24:38.125Z,7.92
2016-04-23T00:25:38.112Z,7.96
2016-04-23T00:26:38.099Z,7.99
2016-04-23T00:27:38.102Z,7.99
2016-04-23T00:28:38.073Z,7.97
2016-04-23T00:29:38.044Z,7.94
2016-04-23T00:30:38.047Z,7.92
2016-04-23T00:31:38.019Z,7.9
2016-04-23T00:32:37.991Z,7.93
2016-04-23T00:33:38.008Z,7.89
2016-04-23T00:34:37.980Z,7.85
2016-04-23T00:35:37.952Z,7.89
2016-04-23T00:36:37.938Z,7.89
2016-04-23T00:37:37.926Z,7.9
2016-04-23T00:38:37.913Z,7.78
2016-04-23T00:39:37.899Z,7.85
2016-04-23T00:40:37.887Z,7.85
2016-04-23T00:41:37.874Z,7.85
2016-04-23T00:42:37.845Z,7.82
2016-04-23T00:43:37.832Z,7.81
2016-04-23T00:44:37.820Z,7.85
2016-04-23T00:45:37.823Z,7.85
2016-04-23T00:46:37.809Z,7.9
2016-04-23T00:47:37.781Z,7.84
2016-04-23T00:48:37.752Z,7.82
2016-04-23T00:49:37.754Z,7.85
2016-04-23T00:50:37.726Z,7.84
2016-04-23T00:51:37.713Z,7.77
2016-04-23T00:52:37.701Z,7.79
2016-04-23T00:53:37.687Z,7.85
2016-04-23T00:54:37.675Z,7.78
2016-04-23T00:55:37.661Z,7.77
2016-04-23T00:56:37.633Z,7.77
2016-04-23T00:57:37.636Z,7.82
2016-04-23T00:58:37.607Z,7.85
2016-04-23T00:59:37.594Z,7.72
2016-04-23T01:00:37.581Z,7.72
2016-04-23T01:01:37.569Z,7.79
2016-04-23T01:02:37.539Z,7.77
2016-04-23T01:03:37.526Z,7.77
2016-04-23T01:04:37.513Z,7.78
2016-04-23T01:05:37.517Z,7.72
2016-04-23T01:06:37.488Z,7.75
2016-04-23T01:07:37.459Z,7.75
2016-04-23T01:08:37.478Z,7.79
2016-04-23T01:09:37.465Z,7.69
2016-04-23T01:10:37.421Z,7.67
2016-04-23T01:11:37.407Z,7.71
2016-04-23T01:12:37.396Z,7.79
2016-04-23T01:13:37.382Z,7.69
2016-04-23T01:14:37.384Z,7.72
2016-04-23T01:15:37.340Z,7.77
2016-04-23T01:16:37.326Z,7.74
2016-04-23T01:17:36.565Z,7.71
2016-04-23T01:18:37.301Z,7.79
2016-04-23T01:19:37.304Z,7.62
2016-04-23T01:20:37.276Z,7.62
2016-04-23T01:21:37.263Z,7.63
2016-04-23T01:22:37.250Z,7.63
2016-04-23T01:23:37.220Z,7.69
2016-04-23T01:24:37.224Z,7.72
2016-04-23T01:25:37.195Z,7.67
2016-04-23T01:26:37.167Z,7.67
2016-04-23T01:27:37.169Z,7.72
2016-04-23T01:28:37.141Z,7.71
2016-04-23T01:29:37.128Z,7.67
2016-04-23T01:30:37.130Z,7.71
2016-04-23T01:31:37.102Z,7.66
2016-04-23T01:32:37.105Z,7.66
2016-04-23T01:33:37.092Z,7.66
2016-04-23T01:34:37.047Z,7.71
2016-04-23T01:35:37.050Z,7.71
2016-04-23T01:36:37.225Z,7.71
2016-04-23T01:37:37.008Z,7.6
2016-04-23T01:38:36.996Z,7.6
2016-04-23T01:39:36.983Z,7.67
2016-04-23T01:40:36.970Z,7.59
2016-04-23T01:41:36.957Z,7.62
2016-04-23T01:42:36.944Z,7.6
2016-04-23T01:43:36.915Z,7.6
2016-04-23T01:44:36.902Z,7.62
2016-04-23T01:45:36.890Z,7.6
2016-04-23T01:46:36.877Z,7.6
2016-04-23T01:47:36.895Z,7.62
2016-04-23T01:48:36.851Z,7.63
2016-04-23T01:49:36.838Z,7.63
2016-04-23T01:50:36.825Z,7.67
2016-04-23T01:51:36.796Z,7.52
2016-04-23T01:52:36.767Z,7.58
2016-04-23T01:53:36.771Z,7.58
2016-04-23T01:54:36.758Z,7.6
2016-04-23T01:55:36.744Z,7.55
2016-04-23T01:56:36.717Z,7.55
2016-04-23T01:57:36.719Z,7.59
2016-04-23T01:58:36.690Z,7.52
2016-04-23T01:59:36.677Z,7.55
2016-04-23T02:00:36.665Z,7.53
2016-04-23T02:01:36.636Z,7.58
2016-04-23T02:02:36.497Z,7.55
2016-04-23T02:03:36.625Z,7.58
2016-04-23T02:04:36.643Z,7.58
2016-04-23T02:05:36.584Z,7.5
2016-04-23T02:06:36.602Z,7.45
2016-04-23T02:07:36.558Z,7.45
2016-04-23T02:08:36.546Z,7.45
2016-04-23T02:09:36.533Z,7.42
2016-04-23T02:10:36.535Z,7.41
2016-04-23T02:11:36.490Z,7.45
2016-04-23T02:12:37.291Z,7.44
2016-04-23T02:13:36.465Z,7.47
2016-04-23T02:14:36.468Z,7.4
2016-04-23T02:15:36.423Z,7.44
2016-04-23T02:16:36.410Z,7.34
2016-04-23T02:17:36.398Z,7.47
2016-04-23T02:18:36.368Z,7.4
2016-04-23T02:19:36.356Z,7.41
2016-04-23T02:20:36.359Z,7.37
2016-04-23T02:21:36.346Z,7.31
2016-04-23T02:22:36.327Z,7.34
2016-04-23T02:23:36.298Z,7.35
2016-04-23T02:24:36.286Z,7.26
2016-04-23T02:25:36.272Z,7.24
2016-04-23T02:26:36.260Z,7.27
2016-04-23T02:27:36.246Z,7.34
2016-04-23T02:28:36.219Z,7.29
2016-04-23T02:29:36.205Z,7.37
2016-04-23T02:30:36.208Z,7.29
2016-04-23T02:31:36.180Z,7.22
2016-04-23T02:32:36.166Z,7.27
2016-04-23T02:33:36.138Z,7.24
2016-04-23T02:34:36.140Z,7.26
2016-04-23T02:35:36.112Z,7.35
2016-04-23T02:36:36.099Z,7.31
2016-04-23T02:37:36.071Z,7.19
2016-04-23T02:38:36.073Z,7.26
2016-04-23T02:39:36.060Z,7.22
2016-04-23T02:40:36.032Z,7.24
2016-04-23T02:41:36.018Z,7.2
2016-04-23T02:42:36.006Z,7.29
2016-04-23T02:43:35.993Z,7.27
2016-04-23T02:44:35.980Z,7.22
2016-04-23T02:45:35.967Z,7.29
2016-04-23T02:46:35.954Z,7.29
2016-04-23T02:47:35.926Z,7.24
2016-04-23T02:48:35.912Z,7.26
2016-04-23T02:49:35.884Z,7.22
2016-04-23T02:50:35.886Z,7.26
2016-04-23T02:51:35.859Z,7.23
2016-04-23T02:52:35.861Z,7.22
2016-04-23T02:53:35.832Z,7.22
2016-04-23T02:54:35.820Z,7.24
2016-04-23T02:55:35.806Z,7.15
2016-04-23T02:56:35.794Z,7.15
2016-04-23T02:57:35.764Z,7.13
2016-04-23T02:58:35.753Z,7.13
2016-04-23T02:59:35.739Z,7.15
2016-04-23T03:00:35.726Z,7.12
2016-04-23T03:01:35.697Z,7.13
2016-04-23T03:02:35.700Z,7.22
2016-04-23T03:03:35.688Z,7.15
2016-04-23T03:04:35.658Z,7.17
2016-04-23T03:05:35.646Z,7.17
2016-04-23T03:06:35.680Z,7.15
2016-04-23T03:07:35.620Z,7.19
2016-04-23T03:08:35.685Z,7.15
2016-04-23T03:09:35.594Z,7.2
2016-04-23T03:10:35.582Z,7.16
2016-04-23T03:11:35.552Z,7.15
2016-04-23T03:12:35.554Z,7.16
2016-04-23T03:13:35.527Z,7.15
2016-04-23T03:14:35.514Z,7.16
2016-04-23T03:15:35.484Z,7.17
2016-04-23T03:16:35.488Z,7.2
2016-04-23T03:17:35.490Z,7.22
2016-04-23T03:18:35.446Z,7.19
2016-04-23T03:19:35.418Z,7.19
2016-04-23T03:20:35.437Z,7.15
2016-04-23T03:21:35.408Z,7.15
2016-04-23T03:22:35.379Z,7.13
2016-04-23T03:23:35.381Z,7.15
2016-04-23T03:24:35.369Z,7.08
2016-04-23T03:25:35.339Z,7.15
2016-04-23T03:26:35.327Z,7.08
2016-04-23T03:27:35.331Z,7.12
2016-04-23T03:28:35.286Z,7.12
2016-04-23T03:29:35.273Z,7.13
2016-04-23T03:30:35.244Z,7.15
2016-04-23T03:31:35.247Z,7.15
2016-04-23T03:32:35.281Z,7.17
2016-04-23T03:33:35.205Z,7.17
2016-04-23T03:34:35.193Z,7.13
2016-04-23T03:35:35.180Z,7.13
2016-04-23T03:36:35.167Z,7.08
2016-04-23T03:37:35.154Z,7.15
2016-04-23T03:38:35.125Z,7.13
2016-04-23T03:39:35.113Z,7.09
2016-04-23T03:40:35.099Z,7.15
2016-04-23T03:41:35.086Z,7.12
2016-04-23T03:42:35.073Z,7.12
2016-04-23T03:43:35.046Z,7.13
2016-04-23T03:44:35.032Z,7.13
2016-04-23T03:45:35.019Z,7.08
2016-04-23T03:46:35.006Z,7.13
2016-04-23T03:47:34.993Z,7.08
2016-04-23T03:48:34.965Z,7.09
2016-04-23T03:49:34.951Z,7.08
2016-04-23T03:50:34.939Z,7.08
2016-04-23T03:51:34.926Z,7.08
2016-04-23T03:52:34.960Z,7.04
2016-04-23T03:53:34.900Z,6.95
2016-04-23T03:54:34.887Z,6.97
2016-04-23T03:55:34.846Z,6.97
2016-04-23T03:56:34.849Z,6.89
2016-04-23T03:57:34.852Z,6.84
2016-04-23T03:58:34.823Z,6.84
2016-04-23T03:59:34.796Z,6.98
2016-04-23T04:00:34.781Z,6.95
2016-04-23T04:01:34.769Z,6.98
2016-04-23T04:02:34.757Z,6.98
2016-04-23T04:03:34.728Z,6.97
2016-04-23T04:04:34.714Z,6.98
2016-04-23T04:05:34.701Z,6.97
2016-04-23T04:06:34.689Z,6.97
2016-04-23T04:07:34.707Z,6.94
2016-04-23T04:08:34.648Z,6.87
2016-04-23T04:09:34.634Z,6.94
2016-04-23T04:10:34.621Z,6.9
2016-04-23T04:11:34.609Z,6.84
2016-04-23T04:12:34.595Z,6.89
2016-04-23T04:13:34.567Z,6.84
2016-04-23T04:14:34.554Z,6.86
2016-04-23T04:15:34.541Z,6.9
2016-04-23T04:16:34.513Z,6.86
2016-04-23T04:17:34.516Z,6.94
2016-04-23T04:18:34.486Z,6.87
2016-04-23T04:19:34.489Z,6.94
2016-04-23T04:20:34.460Z,6.95
2016-04-23T04:21:34.447Z,6.9
2016-04-23T04:22:34.435Z,6.86
2016-04-23T04:23:34.422Z,6.87
2016-04-23T04:24:34.394Z,6.9
2016-04-23T04:25:34.380Z,6.84
2016-04-23T04:26:34.368Z,6.91
2016-04-23T04:27:34.354Z,6.9
2016-04-23T04:28:34.341Z,6.86
2016-04-23T04:29:34.532Z,6.91
2016-04-23T04:30:34.332Z,6.87
2016-04-23T04:31:34.288Z,6.87
2016-04-23T04:32:34.274Z,6.9
2016-04-23T04:33:34.262Z,6.86
2016-04-23T04:34:34.232Z,6.83
2016-04-23T04:35:34.220Z,6.83
2016-04-23T04:36:34.206Z,6.86
2016-04-23T04:37:34.178Z,6.83
2016-04-23T04:38:34.165Z,6.83
2016-04-23T04:39:34.153Z,6.86
2016-04-23T04:40:34.156Z,6.86
2016-04-23T04:41:33.970Z,6.83
2016-04-23T04:42:34.114Z,6.81
2016-04-23T04:43:34.100Z,6.81
2016-04-23T04:44:34.088Z,6.81
2016-04-23T04:45:34.059Z,6.79
2016-04-23T04:46:34.047Z,6.89
2016-04-23T04:47:34.034Z,6.84
2016-04-23T04:48:34.020Z,6.87
2016-04-23T04:49:33.992Z,6.94
2016-04-23T04:50:33.994Z,6.87
2016-04-23T04:51:33.966Z,6.9
2016-04-23T04:52:33.952Z,6.91
2016-04-23T04:53:33.940Z,6.94
2016-04-23T04:54:33.927Z,6.81
2016-04-23T04:55:33.899Z,6.89
2016-04-23T04:56:33.886Z,6.9
2016-04-23T04:57:33.873Z,6.87
2016-04-23T04:58:33.860Z,6.91
2016-04-23T04:59:33.846Z,6.91
2016-04-23T05:00:33.834Z,6.95
2016-04-23T05:01:33.821Z,6.95
2016-04-23T05:02:33.808Z,7.01
2016-04-23T05:03:33.780Z,6.83
2016-04-23T05:04:33.767Z,6.89
2016-04-23T05:05:33.754Z,6.95
2016-04-23T05:06:33.740Z,6.94
2016-04-23T05:07:33.713Z,6.95
2016-04-23T05:08:33.698Z,6.99
2016-04-23T05:09:33.686Z,7.01
2016-04-23T05:10:33.673Z,6.98
2016-04-23T05:11:33.661Z,6.94
2016-04-23T05:12:33.647Z,7.02
2016-04-23T05:13:33.619Z,7.02
2016-04-23T05:14:33.606Z,7.01
2016-04-23T05:15:33.593Z,6.99
2016-04-23T05:16:33.580Z,7.01
2016-04-23T05:17:33.567Z,6.95
2016-04-23T05:18:33.539Z,7.01
2016-04-23T05:19:33.526Z,7.04
2016-04-23T05:20:33.513Z,7.08
2016-04-23T05:21:33.500Z,7.16
2016-04-23T05:22:33.486Z,7.17
2016-04-23T05:23:33.302Z,7.12
2016-04-23T05:24:33.460Z,7.08
2016-04-23T05:25:33.463Z,7.16
2016-04-23T05:26:33.419Z,7.09
2016-04-23T05:27:33.407Z,7.13
2016-04-23T05:28:33.222Z,7.17
2016-04-23T05:29:33.380Z,7.12
2016-04-23T05:30:33.352Z,7.16
2016-04-23T05:31:33.354Z,7.2
2016-04-23T05:32:33.373Z,7.19
2016-04-23T05:33:33.313Z,7.13
2016-04-23T05:34:33.301Z,7.24
2016-04-23T05:35:33.287Z,7.15
2016-04-23T05:36:33.274Z,7.13
2016-04-23T05:37:33.246Z,7.23
2016-04-23T05:38:33.467Z,7.13
2016-04-23T05:39:33.220Z,7.19
2016-04-23T05:40:33.223Z,7.17
2016-04-23T05:41:33.195Z,7.19
2016-04-23T05:42:33.181Z,7.19
2016-04-23T05:43:33.168Z,7.19
2016-04-23T05:44:33.140Z,7.08
2016-04-23T05:45:33.127Z,6.98
2016-04-23T05:46:33.130Z,6.97
2016-04-23T05:47:33.100Z,7.02
2016-04-23T05:48:33.089Z,7.04
2016-04-23T05:49:33.075Z,7.04
2016-04-23T05:50:33.062Z,7.05
2016-04-23T05:51:33.034Z,7.07
2016-04-23T05:52:33.021Z,7.12
2016-04-23T05:53:33.008Z,7.19
2016-04-23T05:54:32.994Z,7.19
2016-04-23T05:55:32.982Z,7.15
2016-04-23T05:56:32.953Z,7.16
2016-04-23T05:57:32.955Z,7.2
2016-04-23T05:58:32.787Z,7.12
2016-04-23T05:59:32.915Z,7.27
2016-04-23T06:00:32.918Z,7.16
2016-04-23T06:01:32.904Z,7.27
2016-04-23T06:02:32.876Z,7.27
2016-04-23T06:03:32.878Z,7.24
2016-04-23T06:04:32.850Z,7.34
2016-04-23T06:05:32.837Z,7.31
2016-04-23T06:06:32.824Z,7.27
2016-04-23T06:07:32.812Z,7.34
2016-04-23T06:08:32.782Z,7.35
2016-04-23T06:09:32.754Z,7.27
2016-04-23T06:10:32.756Z,7.29
2016-04-23T06:11:32.743Z,7.31
2016-04-23T06:12:32.731Z,7.37
2016-04-23T06:13:32.920Z,7.34
2016-04-23T06:14:32.705Z,7.24
2016-04-23T06:15:32.676Z,7.32
2016-04-23T06:16:32.679Z,7.32
2016-04-23T06:17:32.650Z,7.41
2016-04-23T06:18:32.637Z,7.42
2016-04-23T06:19:32.639Z,7.42
2016-04-23T06:20:32.612Z,7.37
2016-04-23T06:21:32.600Z,7.41
2016-04-23T06:22:32.586Z,7.34
2016-04-23T06:23:32.573Z,7.31
2016-04-23T06:24:32.544Z,7.35
2016-04-23T06:25:32.547Z,7.34
2016-04-23T06:26:32.533Z,7.44
2016-04-23T06:27:32.505Z,7.42
2016-04-23T06:28:32.493Z,7.45
2016-04-23T06:29:32.480Z,7.37
2016-04-23T06:30:32.466Z,7.41
2016-04-23T06:31:32.438Z,7.41
2016-04-23T06:32:32.457Z,7.47
2016-04-23T06:33:32.412Z,7.55
2016-04-23T06:34:32.430Z,7.53
2016-04-23T06:35:32.401Z,7.6
2016-04-23T06:36:32.374Z,7.74
2016-04-23T06:37:32.361Z,7.69
2016-04-23T06:38:32.363Z,7.63
2016-04-23T06:39:32.335Z,7.74
2016-04-23T06:40:32.321Z,7.81
2016-04-23T06:41:32.309Z,7.85
2016-04-23T06:42:32.373Z,7.89
2016-04-23T06:43:32.298Z,7.9
2016-04-23T06:44:32.270Z,8.03
2016-04-23T06:45:32.273Z,8
2016-04-23T06:46:32.244Z,8.15
2016-04-23T06:47:32.231Z,8.15
2016-04-23T06:48:32.047Z,8.18
2016-04-23T06:49:32.205Z,8.18
2016-04-23T06:50:32.192Z,8.32
2016-04-23T06:51:32.179Z,8.22
2016-04-23T06:52:32.151Z,8.35
2016-04-23T06:53:32.139Z,8.2
2016-04-23T06:54:32.125Z,8.28
2016-04-23T06:55:32.128Z,8.3
2016-04-23T06:56:32.099Z,8.25
2016-04-23T06:57:32.086Z,8.29
2016-04-23T06:58:32.089Z,8.36
2016-04-23T06:59:32.060Z,8.44
2016-04-23T07:00:32.047Z,8.44
2016-04-23T07:01:32.050Z,8.57
2016-04-23T07:02:32.006Z,8.48
2016-04-23T07:03:32.008Z,8.28
2016-04-23T07:04:31.996Z,8.35
2016-04-23T07:05:31.982Z,8.45
2016-04-23T07:06:31.970Z,8.47
2016-04-23T07:07:31.940Z,8.55
2016-04-23T07:08:31.944Z,8.55
2016-04-23T07:09:31.916Z,8.55
2016-04-23T07:10:31.934Z,8.53
2016-04-23T07:11:31.905Z,8.55
2016-04-23T07:12:31.892Z,8.55
2016-04-23T07:13:31.879Z,8.65
2016-04-23T07:14:31.867Z,8.62
2016-04-23T07:15:31.853Z,8.53
2016-04-23T07:16:31.840Z,8.55
2016-04-23T07:17:31.843Z,8.55
2016-04-23T07:18:31.674Z,8.6
2016-04-23T07:19:31.786Z,8.42
2016-04-23T07:20:31.773Z,8.48
2016-04-23T07:21:31.775Z,8.4
2016-04-23T07:22:31.763Z,8.39
2016-04-23T07:23:31.750Z,8.32
2016-04-23T07:24:31.737Z,8.33
2016-04-23T07:25:31.724Z,8.32
2016-04-23T07:26:31.695Z,8.33
2016-04-23T07:27:31.697Z,8.32
2016-04-23T07:28:31.685Z,8.25
2016-04-23T07:29:31.672Z,8.28
2016-04-23T07:30:31.675Z,8.22
2016-04-23T07:31:31.662Z,8.28
2016-04-23T07:32:31.618Z,8.3
2016-04-23T07:33:31.605Z,8.28
2016-04-23T07:34:31.810Z,8.3
2016-04-23T07:35:31.579Z,8.32
2016-04-23T07:36:31.566Z,8.32
2016-04-23T07:37:31.554Z,8.29
2016-04-23T07:38:31.540Z,8.3
2016-04-23T07:39:31.527Z,8.29
2016-04-23T07:40:31.514Z,8.22
2016-04-23T07:41:31.533Z,8.3
2016-04-23T07:42:31.564Z,8.33
2016-04-23T07:43:31.596Z,8.2
2016-04-23T07:44:31.627Z,8.29
2016-04-23T07:45:31.673Z,8.25
2016-04-23T07:46:31.683Z,8.25
2016-04-23T07:47:31.670Z,8.18
2016-04-23T07:48:31.689Z,8.29
2016-04-23T07:49:31.677Z,8.33
2016-04-23T07:50:31.680Z,8.36
2016-04-23T07:51:31.660Z,8.45
2016-04-23T07:52:31.668Z,8.58
2016-04-23T07:53:31.662Z,8.63
2016-04-23T07:54:31.654Z,8.75
2016-04-23T07:55:31.646Z,8.83
2016-04-23T07:56:31.652Z,8.97
2016-04-23T07:57:31.626Z,9.06
2016-04-23T07:58:31.615Z,9.09
2016-04-23T07:59:31.604Z,8.94
2016-04-23T08:00:31.593Z,8.94
2016-04-23T08:01:31.581Z,9.09
2016-04-23T08:02:31.568Z,9.12
2016-04-23T08:03:31.557Z,8.96
2016-04-23T08:04:31.545Z,9.01
2016-04-23T08:05:31.533Z,9.04
2016-04-23T08:06:31.644Z,9.16
2016-04-23T08:07:31.508Z,9.16
2016-04-23T08:08:31.495Z,9.05
2016-04-23T08:09:31.482Z,8.94
2016-04-23T08:10:31.486Z,9.05
2016-04-23T08:11:31.550Z,9.18
2016-04-23T08:12:31.459Z,9.34
2016-04-23T08:13:31.634Z,9.53
2016-04-23T08:14:31.418Z,9.89
2016-04-23T08:15:31.405Z,9.89
2016-04-23T08:16:31.408Z,9.93
2016-04-23T08:17:31.394Z,10
2016-04-23T08:18:31.367Z,9.82
2016-04-23T08:19:31.369Z,10.06
2016-04-23T08:20:31.355Z,10.34
2016-04-23T08:21:31.358Z,10.71
2016-04-23T08:22:31.346Z,10.3
2016-04-23T08:23:31.317Z,10.19
2016-04-23T08:24:31.319Z,10.22
2016-04-23T08:25:31.308Z,11.46
2016-04-23T08:26:31.294Z,12.26
2016-04-23T08:27:31.282Z,12.44
2016-04-23T08:28:31.284Z,12.81
2016-04-23T08:29:31.260Z,13.37
2016-04-23T08:30:31.247Z,14.38
2016-04-23T08:31:31.235Z,15.05
2016-04-23T08:32:31.237Z,15.74
2016-04-23T08:33:31.240Z,16.68
2016-04-23T08:34:31.226Z,17.33
2016-04-23T08:35:31.214Z,18
2016-04-23T08:36:31.201Z,17.3
2016-04-23T08:37:31.203Z,16.14
2016-04-23T08:38:31.191Z,14.95
2016-04-23T08:39:31.193Z,13.89
2016-04-23T08:40:31.195Z,13.25
2016-04-23T08:41:31.184Z,12.82
2016-04-23T08:42:31.186Z,12.96
2016-04-23T08:43:31.188Z,13.11
2016-04-23T08:44:31.161Z,12.74
2016-04-23T08:45:31.147Z,12.45
2016-04-23T08:46:31.133Z,11.77
2016-04-23T08:47:31.136Z,11.9
2016-04-23T08:48:31.406Z,11.77
2016-04-23T08:49:31.127Z,11.64
2016-04-23T08:50:31.129Z,11.44
2016-04-23T08:51:31.117Z,11.19
2016-04-23T08:52:30.947Z,11.09
2016-04-23T08:53:31.137Z,10.74
2016-04-23T08:54:31.093Z,10.36
2016-04-23T08:55:31.096Z,10.19
2016-04-23T08:56:31.068Z,10.01
2016-04-23T08:57:31.071Z,9.94
2016-04-23T08:58:31.073Z,9.94
2016-04-23T08:59:31.060Z,9.79
2016-04-23T09:00:31.062Z,9.6
2016-04-23T09:01:31.018Z,9.53
2016-04-23T09:02:31.021Z,9.38
2016-04-23T09:03:31.023Z,9.27
2016-04-23T09:04:31.010Z,9.05
2016-04-23T09:05:30.998Z,9.02
2016-04-23T09:06:30.985Z,8.97
2016-04-23T09:07:30.972Z,8.91
2016-04-23T09:08:30.959Z,8.73
2016-04-23T09:09:30.961Z,8.73
2016-04-23T09:10:30.948Z,8.55
2016-04-23T09:11:30.936Z,8.63
2016-04-23T09:12:30.923Z,8.63
2016-04-23T09:13:30.925Z,8.76
2016-04-23T09:14:30.912Z,8.73
2016-04-23T09:15:30.884Z,8.71
2016-04-23T09:16:30.871Z,8.81
2016-04-23T09:17:30.858Z,8.83
2016-04-23T09:18:30.845Z,8.79
2016-04-23T09:19:30.833Z,8.96
2016-04-23T09:20:30.835Z,9.02
2016-04-23T09:21:30.822Z,9.15
2016-04-23T09:22:30.074Z,9.23
2016-04-23T09:23:30.796Z,9.46
2016-04-23T09:24:30.799Z,9.48
2016-04-23T09:25:30.771Z,9.79
2016-04-23T09:26:30.758Z,9.86
2016-04-23T09:27:30.822Z,10
2016-04-23T09:28:30.746Z,10.06
2016-04-23T09:29:30.953Z,10.04
2016-04-23T09:30:30.721Z,10.07
2016-04-23T09:31:30.693Z,10.06
2016-04-23T09:32:30.680Z,10.03
2016-04-23T09:33:30.667Z,9.97
2016-04-23T09:34:30.888Z,9.88
2016-04-23T09:35:30.657Z,9.91
2016-04-23T09:36:30.659Z,10
2016-04-23T09:37:30.631Z,10
2016-04-23T09:38:30.633Z,9.88
2016-04-23T09:39:30.620Z,9.73
2016-04-23T09:40:30.592Z,9.49
2016-04-23T09:41:30.517Z,9.58
2016-04-23T09:42:31.487Z,9.4
2016-04-23T09:43:31.100Z,9.39
2016-04-23T09:44:30.556Z,9.4
2016-04-23T09:45:30.542Z,9.5
2016-04-23T09:46:30.530Z,9.32
2016-04-23T09:47:30.533Z,9.32
2016-04-23T09:48:30.504Z,9.4
2016-04-23T09:49:30.492Z,9.35
2016-04-23T09:50:30.494Z,9.25
2016-04-23T09:51:30.387Z,9.06
2016-04-23T09:52:30.452Z,9.01
2016-04-23T09:53:30.455Z,9.01
2016-04-23T09:54:30.442Z,8.88
2016-04-23T09:55:30.429Z,8.81
2016-04-23T09:56:30.416Z,8.72
2016-04-23T09:57:30.403Z,8.71
2016-04-23T09:58:30.390Z,8.55
2016-04-23T09:59:30.377Z,8.5
2016-04-23T10:00:30.365Z,8.5
2016-04-23T10:01:30.352Z,8.42
2016-04-23T10:02:30.214Z,8.44
2016-04-23T10:03:30.326Z,8.45
2016-04-23T10:04:30.328Z,8.47
2016-04-23T10:05:30.971Z,8.39
2016-04-23T10:06:30.677Z,8.44
2016-04-23T10:07:30.290Z,8.5
2016-04-23T10:08:30.807Z,8.51
2016-04-23T10:09:30.248Z,8.55
2016-04-23T10:10:30.251Z,8.68
2016-04-23T10:11:30.597Z,8.76
2016-04-23T10:12:30.209Z,8.81
2016-04-23T10:13:30.400Z,8.94
2016-04-23T10:14:30.198Z,9.05
2016-04-23T10:15:30.373Z,9.13
2016-04-23T10:16:31.986Z,9.3
2016-04-23T10:17:31.394Z,9.35
2016-04-23T10:18:30.147Z,9.45
2016-04-23T10:19:30.666Z,9.63
2016-04-23T10:20:29.981Z,9.73
2016-04-23T10:21:30.108Z,9.82
2016-04-23T10:22:29.954Z,9.99
2016-04-23T10:23:30.086Z,10.04
2016-04-23T10:24:30.073Z,10.42
2016-04-23T10:25:30.060Z,10.68
2016-04-23T10:26:30.031Z,11.03
2016-04-23T10:27:30.033Z,11.83
2016-04-23T10:28:30.036Z,12.48
2016-04-23T10:29:30.008Z,13.03
2016-04-23T10:30:30.010Z,13.54
2016-04-23T10:31:29.997Z,14.29
2016-04-23T10:32:29.985Z,15.02
2016-04-23T10:33:30.019Z,15.54
2016-04-23T10:34:29.849Z,16.06
2016-04-23T10:35:29.993Z,16.09
2016-04-23T10:36:29.964Z,15.11
2016-04-23T10:37:29.967Z,15.6
2016-04-23T10:38:29.954Z,16
2016-04-23T10:39:29.956Z,16.35
2016-04-23T10:40:29.943Z,16.8
2016-04-23T10:41:29.946Z,17.26
2016-04-23T10:42:29.965Z,17.51
2016-04-23T10:43:29.936Z,17.32
2016-04-23T10:44:29.954Z,17.43
2016-04-23T10:45:29.942Z,17.81
2016-04-23T10:46:29.945Z,18.21
2016-04-23T10:47:29.947Z,18.54
2016-04-23T10:48:29.934Z,18.27
2016-04-23T10:49:29.796Z,17.59
2016-04-23T10:50:29.924Z,16.8
2016-04-23T10:51:29.926Z,15.2
2016-04-23T10:52:29.929Z,14.44
2016-04-23T10:53:29.931Z,13.91
2016-04-23T10:54:29.951Z,13.3
2016-04-23T10:55:29.937Z,12.96
2016-04-23T10:56:29.939Z,12.57
2016-04-23T10:57:30.130Z,12.39
2016-04-23T10:58:29.930Z,12.04
2016-04-23T10:59:29.933Z,11.87
2016-04-23T11:00:29.919Z,11.7
2016-04-23T11:01:29.922Z,11.49
2016-04-23T11:02:29.909Z,11.35
2016-04-23T11:03:29.912Z,11.28
2016-04-23T11:04:29.899Z,11.03
2016-04-23T11:05:30.105Z,10.66
2016-04-23T11:06:29.889Z,10.58
2016-04-23T11:07:29.876Z,10.51
2016-04-23T11:08:29.894Z,10.47
2016-04-23T11:09:29.881Z,10.34
2016-04-23T11:10:29.884Z,10.4
2016-04-23T11:11:29.871Z,10.36
2016-04-23T11:12:29.858Z,10.39
2016-04-23T11:13:29.861Z,10.24
2016-04-23T11:14:29.847Z,10.12
2016-04-23T11:15:29.834Z,10.17
2016-04-23T11:16:29.822Z,10.18
2016-04-23T11:17:29.809Z,10.24
2016-04-23T11:18:29.812Z,10.33
2016-04-23T11:19:29.752Z,10.34
2016-04-23T11:20:29.786Z,10.37
2016-04-23T11:21:29.789Z,10.26
2016-04-23T11:22:29.775Z,10.52
2016-04-23T11:23:29.762Z,10.68
2016-04-23T11:24:29.750Z,10.7
2016-04-23T11:25:29.752Z,11.14
2016-04-23T11:26:29.739Z,11.9
2016-04-23T11:27:29.727Z,12.29
2016-04-23T11:28:29.714Z,12.92
2016-04-23T11:29:29.716Z,13.74
2016-04-23T11:30:29.703Z,14.17
2016-04-23T11:31:29.706Z,14.44
2016-04-23T11:32:29.536Z,15.11
2016-04-23T11:33:29.696Z,15.57
2016-04-23T11:34:30.558Z,15.31
2016-04-23T11:35:30.014Z,15.12
2016-04-23T11:36:29.688Z,14.49
2016-04-23T11:37:29.675Z,14.21
2016-04-23T11:38:29.678Z,13.65
2016-04-23T11:39:29.665Z,13.3
2016-04-23T11:40:29.668Z,13.02
2016-04-23T11:41:29.670Z,12.52
2016-04-23T11:42:29.657Z,12.37
2016-04-23T11:43:29.660Z,12.26
2016-04-23T11:44:29.851Z,12.04
2016-04-23T11:45:29.651Z,11.93
2016-04-23T11:46:29.637Z,11.8
2016-04-23T11:47:29.639Z,11.68
2016-04-23T11:48:29.643Z,11.56
2016-04-23T11:49:29.473Z,11.27
2016-04-23T11:50:31.085Z,11.19
2016-04-23T11:51:29.604Z,11.1
2016-04-23T11:52:29.623Z,11.13
2016-04-23T11:53:29.609Z,11.19
2016-04-23T11:54:29.595Z,11.1
2016-04-23T11:55:29.583Z,11.21
2016-04-23T11:56:29.586Z,11.25
2016-04-23T11:57:29.573Z,11.28
2016-04-23T11:58:29.560Z,11.28
2016-04-23T11:59:29.563Z,11.25
2016-04-23T12:00:29.566Z,11.34
2016-04-23T12:01:29.537Z,11.43
2016-04-23T12:02:29.539Z,11.36
2016-04-23T12:03:29.542Z,11.41
2016-04-23T12:04:29.794Z,11.5
2016-04-23T12:05:30.844Z,11.44
2016-04-23T12:06:29.503Z,11.52
2016-04-23T12:07:29.491Z,11.82
2016-04-23T12:08:29.477Z,11.8
2016-04-23T12:09:29.465Z,11.68
2016-04-23T12:10:29.468Z,11.89
2016-04-23T12:11:29.485Z,11.86
2016-04-23T12:12:29.457Z,11.93
2016-04-23T12:13:29.646Z,11.97
2016-04-23T12:14:29.446Z,11.74
2016-04-23T12:15:29.418Z,11.54
2016-04-23T12:16:29.405Z,11.62
2016-04-23T12:17:29.407Z,11.62
2016-04-23T12:18:29.410Z,11.64
2016-04-23T12:19:29.397Z,11.5
2016-04-23T12:20:29.432Z,11.36
2016-04-23T12:21:29.372Z,11.35
2016-04-23T12:22:29.359Z,11.11
2016-04-23T12:23:29.361Z,11.19
2016-04-23T12:24:29.348Z,11.43
2016-04-23T12:25:29.336Z,11.97
2016-04-23T12:26:29.323Z,12.27
2016-04-23T12:27:29.310Z,12.37
2016-04-23T12:28:29.312Z,12.77
2016-04-23T12:29:29.314Z,12.99
2016-04-23T12:30:29.333Z,13.22
2016-04-23T12:31:29.289Z,13.95
2016-04-23T12:32:29.277Z,14.78
2016-04-23T12:33:29.280Z,15.38
2016-04-23T12:34:29.266Z,15.94
2016-04-23T12:35:29.128Z,16.49
2016-04-23T12:36:29.256Z,16.3
2016-04-23T12:37:29.258Z,16.83
2016-04-23T12:38:29.246Z,17.41
2016-04-23T12:39:29.248Z,17.57
2016-04-23T12:40:29.251Z,17.41
2016-04-23T12:41:29.238Z,17.35
2016-04-23T12:42:29.257Z,17.04
2016-04-23T12:43:29.243Z,16.23
2016-04-23T12:44:29.246Z,15.39
2016-04-23T12:45:29.249Z,14.8
2016-04-23T12:46:29.236Z,14.29
2016-04-23T12:47:29.238Z,13.83
2016-04-23T12:48:29.226Z,13.52
2016-04-23T12:49:29.228Z,13.46
2016-04-23T12:50:29.200Z,13.14
2016-04-23T12:51:29.218Z,12.99
2016-04-23T12:52:29.237Z,12.59
2016-04-23T12:53:29.223Z,12.46
2016-04-23T12:54:29.211Z,12.2
2016-04-23T12:55:29.042Z,11.96
2016-04-23T12:56:29.200Z,11.94
2016-04-23T12:57:29.187Z,12.08
2016-04-23T12:58:29.189Z,11.96
2016-04-23T12:59:29.177Z,11.87
2016-04-23T13:00:29.164Z,12.11
2016-04-23T13:01:29.011Z,12.2
2016-04-23T13:02:29.185Z,12.23
2016-04-23T13:03:29.156Z,12.26
2016-04-23T13:04:29.143Z,12.15
2016-04-23T13:05:30.333Z,12.04
2016-04-23T13:06:29.149Z,12.09
2016-04-23T13:07:29.133Z,12.24
2016-04-23T13:08:29.119Z,12.24
2016-04-23T13:09:29.106Z,11.97
2016-04-23T13:10:29.141Z,11.83
2016-04-23T13:11:29.096Z,11.78
2016-04-23T13:12:29.083Z,11.96
2016-04-23T13:13:28.336Z,11.85
2016-04-23T13:14:29.073Z,11.93